sensor_id;sensor_type;location;lat;lon;timestamp;P1;durP1;ratioP1;P2;durP2;ratioP2
5010;SDS011;2524;54.364;10.072;2023-01-23T00:00:39;2.60;;;2.40;;
5010;SDS011;2524;54.364;10.072;2023-01-23T00:03:06;2.43;;;2.20;;
5010;SDS011;2524;54.364;10.072;2023-01-23T00:05:32;1.90;;;1.80;;
5010;SDS011;2524;54.364;10.072;2023-01-23T00:07:57;5.37;;;2.20;;
5010;SDS011;2524;54.364;10.072;2023-01-23T00:10:23;2.13;;;1.70;;
5010;SDS011;2524;54.364;10.072;2023-01-23T00:12:48;2.13;;;2.13;;
5010;SDS011;2524;54.364;10.072;2023-01-23T00:15:14;2.00;;;1.90;;
5010;SDS011;2524;54.364;10.072;2023-01-23T00:17:40;2.97;;;2.30;;
5010;SDS011;2524;54.364;10.072;2023-01-23T00:20:10;3.77;;;2.20;;
5010;SDS011;2524;54.364;10.072;2023-01-23T00:22:37;3.70;;;2.23;;
5010;SDS011;2524;54.364;10.072;2023-01-23T00:25:03;2.60;;;2.10;;
5010;SDS011;2524;54.364;10.072;2023-01-23T00:27:29;2.00;;;1.90;;
5010;SDS011;2524;54.364;10.072;2023-01-23T00:29:55;5.57;;;2.37;;
5010;SDS011;2524;54.364;10.072;2023-01-23T00:32:21;5.00;;;2.67;;
5010;SDS011;2524;54.364;10.072;2023-01-23T00:34:47;2.93;;;2.27;;
5010;SDS011;2524;54.364;10.072;2023-01-23T00:37:13;2.40;;;2.20;;
5010;SDS011;2524;54.364;10.072;2023-01-23T00:39:39;2.57;;;2.13;;
5010;SDS011;2524;54.364;10.072;2023-01-23T00:42:05;2.37;;;2.17;;
5010;SDS011;2524;54.364;10.072;2023-01-23T00:44:30;2.93;;;2.40;;
5010;SDS011;2524;54.364;10.072;2023-01-23T00:46:56;2.17;;;2.07;;
5010;SDS011;2524;54.364;10.072;2023-01-23T00:49:23;2.10;;;2.00;;
5010;SDS011;2524;54.364;10.072;2023-01-23T00:51:49;2.23;;;2.23;;
5010;SDS011;2524;54.364;10.072;2023-01-23T00:54:14;2.13;;;2.03;;
5010;SDS011;2524;54.364;10.072;2023-01-23T00:56:41;2.50;;;2.30;;
5010;SDS011;2524;54.364;10.072;2023-01-23T00:59:07;2.20;;;2.00;;
5010;SDS011;2524;54.364;10.072;2023-01-23T01:01:33;1.90;;;1.80;;
5010;SDS011;2524;54.364;10.072;2023-01-23T01:03:59;2.60;;;2.50;;
5010;SDS011;2524;54.364;10.072;2023-01-23T01:06:25;2.80;;;2.00;;
5010;SDS011;2524;54.364;10.072;2023-01-23T01:08:51;2.00;;;1.90;;
5010;SDS011;2524;54.364;10.072;2023-01-23T01:11:17;2.40;;;2.20;;
5010;SDS011;2524;54.364;10.072;2023-01-23T01:13:43;2.03;;;1.93;;
5010;SDS011;2524;54.364;10.072;2023-01-23T01:16:09;2.60;;;2.40;;
5010;SDS011;2524;54.364;10.072;2023-01-23T01:18:35;1.53;;;1.53;;
5010;SDS011;2524;54.364;10.072;2023-01-23T01:21:08;2.60;;;2.40;;
5010;SDS011;2524;54.364;10.072;2023-01-23T01:23:37;1.93;;;1.83;;
5010;SDS011;2524;54.364;10.072;2023-01-23T01:26:03;1.93;;;1.93;;
5010;SDS011;2524;54.364;10.072;2023-01-23T01:28:30;2.50;;;2.40;;
5010;SDS011;2524;54.364;10.072;2023-01-23T01:30:57;3.13;;;1.90;;
5010;SDS011;2524;54.364;10.072;2023-01-23T01:33:26;2.63;;;2.00;;
5010;SDS011;2524;54.364;10.072;2023-01-23T01:35:52;4.50;;;2.47;;
5010;SDS011;2524;54.364;10.072;2023-01-23T01:38:20;2.10;;;2.00;;
5010;SDS011;2524;54.364;10.072;2023-01-23T01:40:46;2.30;;;2.20;;
5010;SDS011;2524;54.364;10.072;2023-01-23T01:43:23;2.90;;;1.90;;
5010;SDS011;2524;54.364;10.072;2023-01-23T01:53:44;2.00;;;1.90;;
5010;SDS011;2524;54.364;10.072;2023-01-23T01:56:13;2.80;;;2.27;;
5010;SDS011;2524;54.364;10.072;2023-01-23T01:58:40;2.20;;;2.10;;
5010;SDS011;2524;54.364;10.072;2023-01-23T02:01:08;4.43;;;2.83;;
5010;SDS011;2524;54.364;10.072;2023-01-23T02:03:33;2.43;;;2.30;;
5010;SDS011;2524;54.364;10.072;2023-01-23T02:05:59;3.10;;;2.40;;
5010;SDS011;2524;54.364;10.072;2023-01-23T02:08:26;2.30;;;2.20;;
5010;SDS011;2524;54.364;10.072;2023-01-23T02:11:12;2.80;;;2.40;;
5010;SDS011;2524;54.364;10.072;2023-01-23T02:13:40;2.83;;;2.30;;
5010;SDS011;2524;54.364;10.072;2023-01-23T02:16:18;2.37;;;2.27;;
5010;SDS011;2524;54.364;10.072;2023-01-23T02:18:49;4.40;;;2.57;;
5010;SDS011;2524;54.364;10.072;2023-01-23T02:21:22;2.20;;;2.10;;
5010;SDS011;2524;54.364;10.072;2023-01-23T02:26:39;5.60;;;2.40;;
5010;SDS011;2524;54.364;10.072;2023-01-23T02:29:06;2.10;;;2.00;;
5010;SDS011;2524;54.364;10.072;2023-01-23T02:31:32;2.50;;;2.30;;
5010;SDS011;2524;54.364;10.072;2023-01-23T02:33:59;2.60;;;2.40;;
5010;SDS011;2524;54.364;10.072;2023-01-23T02:36:26;4.40;;;2.57;;
5010;SDS011;2524;54.364;10.072;2023-01-23T02:39:05;2.23;;;2.07;;
5010;SDS011;2524;54.364;10.072;2023-01-23T02:41:35;2.30;;;2.20;;
5010;SDS011;2524;54.364;10.072;2023-01-23T02:44:05;2.83;;;2.60;;
5010;SDS011;2524;54.364;10.072;2023-01-23T02:46:42;3.20;;;3.00;;
5010;SDS011;2524;54.364;10.072;2023-01-23T02:49:07;2.37;;;2.27;;
5010;SDS011;2524;54.364;10.072;2023-01-23T02:51:33;2.13;;;2.03;;
5010;SDS011;2524;54.364;10.072;2023-01-23T02:53:59;2.50;;;2.40;;
5010;SDS011;2524;54.364;10.072;2023-01-23T02:56:25;2.97;;;2.20;;
5010;SDS011;2524;54.364;10.072;2023-01-23T02:58:50;2.90;;;2.70;;
5010;SDS011;2524;54.364;10.072;2023-01-23T03:01:34;2.43;;;2.30;;
5010;SDS011;2524;54.364;10.072;2023-01-23T03:04:03;2.80;;;2.60;;
5010;SDS011;2524;54.364;10.072;2023-01-23T03:06:30;2.73;;;2.50;;
5010;SDS011;2524;54.364;10.072;2023-01-23T03:09:11;2.50;;;2.33;;
5010;SDS011;2524;54.364;10.072;2023-01-23T03:11:39;2.77;;;2.40;;
5010;SDS011;2524;54.364;10.072;2023-01-23T03:14:07;2.87;;;2.70;;
5010;SDS011;2524;54.364;10.072;2023-01-23T03:16:35;2.93;;;2.73;;
5010;SDS011;2524;54.364;10.072;2023-01-23T03:19:05;2.37;;;2.27;;
5010;SDS011;2524;54.364;10.072;2023-01-23T03:21:33;2.90;;;2.67;;
5010;SDS011;2524;54.364;10.072;2023-01-23T03:24:04;2.60;;;2.40;;
5010;SDS011;2524;54.364;10.072;2023-01-23T03:26:36;2.33;;;2.23;;
5010;SDS011;2524;54.364;10.072;2023-01-23T03:29:05;2.47;;;2.27;;
5010;SDS011;2524;54.364;10.072;2023-01-23T03:31:51;1.77;;;1.77;;
5010;SDS011;2524;54.364;10.072;2023-01-23T03:34:17;2.63;;;2.27;;
5010;SDS011;2524;54.364;10.072;2023-01-23T03:36:43;2.60;;;2.40;;
5010;SDS011;2524;54.364;10.072;2023-01-23T03:39:09;3.60;;;2.40;;
5010;SDS011;2524;54.364;10.072;2023-01-23T03:41:53;2.60;;;2.50;;
5010;SDS011;2524;54.364;10.072;2023-01-23T03:44:19;2.10;;;2.00;;
5010;SDS011;2524;54.364;10.072;2023-01-23T03:46:45;2.70;;;2.50;;
5010;SDS011;2524;54.364;10.072;2023-01-23T03:49:11;1.53;;;1.53;;
5010;SDS011;2524;54.364;10.072;2023-01-23T03:51:37;1.83;;;1.73;;
5010;SDS011;2524;54.364;10.072;2023-01-23T03:54:03;1.63;;;1.63;;
5010;SDS011;2524;54.364;10.072;2023-01-23T03:56:28;2.60;;;1.70;;
5010;SDS011;2524;54.364;10.072;2023-01-23T03:58:54;1.80;;;1.80;;
5010;SDS011;2524;54.364;10.072;2023-01-23T04:01:20;2.40;;;2.20;;
5010;SDS011;2524;54.364;10.072;2023-01-23T04:03:45;2.23;;;2.13;;
5010;SDS011;2524;54.364;10.072;2023-01-23T04:06:11;2.40;;;2.30;;
5010;SDS011;2524;54.364;10.072;2023-01-23T04:08:36;2.07;;;2.00;;
5010;SDS011;2524;54.364;10.072;2023-01-23T04:11:06;1.83;;;1.83;;
5010;SDS011;2524;54.364;10.072;2023-01-23T04:13:32;2.20;;;2.00;;
5010;SDS011;2524;54.364;10.072;2023-01-23T04:15:59;2.17;;;2.07;;
5010;SDS011;2524;54.364;10.072;2023-01-23T04:18:26;2.43;;;2.33;;
5010;SDS011;2524;54.364;10.072;2023-01-23T04:20:52;2.27;;;2.17;;
5010;SDS011;2524;54.364;10.072;2023-01-23T04:23:18;2.10;;;2.00;;
5010;SDS011;2524;54.364;10.072;2023-01-23T04:25:43;2.70;;;2.50;;
5010;SDS011;2524;54.364;10.072;2023-01-23T04:28:09;1.83;;;1.83;;
5010;SDS011;2524;54.364;10.072;2023-01-23T04:30:35;1.83;;;1.70;;
5010;SDS011;2524;54.364;10.072;2023-01-23T04:33:00;1.60;;;1.60;;
5010;SDS011;2524;54.364;10.072;2023-01-23T04:35:26;2.67;;;1.83;;
5010;SDS011;2524;54.364;10.072;2023-01-23T04:37:51;2.00;;;1.90;;
5010;SDS011;2524;54.364;10.072;2023-01-23T04:40:17;1.90;;;1.80;;
5010;SDS011;2524;54.364;10.072;2023-01-23T04:42:42;2.43;;;2.33;;
5010;SDS011;2524;54.364;10.072;2023-01-23T04:45:08;1.90;;;1.90;;
5010;SDS011;2524;54.364;10.072;2023-01-23T04:47:34;2.70;;;2.60;;
5010;SDS011;2524;54.364;10.072;2023-01-23T04:50:00;2.90;;;2.80;;
5010;SDS011;2524;54.364;10.072;2023-01-23T04:52:26;4.93;;;2.53;;
5010;SDS011;2524;54.364;10.072;2023-01-23T04:54:51;2.37;;;2.30;;
5010;SDS011;2524;54.364;10.072;2023-01-23T04:57:17;2.27;;;2.17;;
5010;SDS011;2524;54.364;10.072;2023-01-23T04:59:43;2.30;;;2.20;;
5010;SDS011;2524;54.364;10.072;2023-01-23T05:02:09;2.13;;;2.03;;
5010;SDS011;2524;54.364;10.072;2023-01-23T05:04:34;2.10;;;2.10;;
5010;SDS011;2524;54.364;10.072;2023-01-23T05:07:00;1.90;;;1.80;;
5010;SDS011;2524;54.364;10.072;2023-01-23T05:09:25;1.97;;;1.70;;
5010;SDS011;2524;54.364;10.072;2023-01-23T05:11:51;2.03;;;1.93;;
5010;SDS011;2524;54.364;10.072;2023-01-23T05:14:17;1.90;;;1.80;;
5010;SDS011;2524;54.364;10.072;2023-01-23T05:16:42;2.43;;;2.33;;
5010;SDS011;2524;54.364;10.072;2023-01-23T05:19:08;2.17;;;2.10;;
5010;SDS011;2524;54.364;10.072;2023-01-23T05:21:33;2.33;;;2.17;;
5010;SDS011;2524;54.364;10.072;2023-01-23T05:23:59;2.57;;;2.37;;
5010;SDS011;2524;54.364;10.072;2023-01-23T05:26:24;1.87;;;1.87;;
5010;SDS011;2524;54.364;10.072;2023-01-23T05:28:50;2.23;;;2.13;;
5010;SDS011;2524;54.364;10.072;2023-01-23T05:31:16;3.80;;;2.27;;
5010;SDS011;2524;54.364;10.072;2023-01-23T05:33:41;2.50;;;2.40;;
5010;SDS011;2524;54.364;10.072;2023-01-23T05:36:07;2.50;;;2.40;;
5010;SDS011;2524;54.364;10.072;2023-01-23T05:38:32;2.13;;;2.03;;
5010;SDS011;2524;54.364;10.072;2023-01-23T05:40:58;2.00;;;2.00;;
5010;SDS011;2524;54.364;10.072;2023-01-23T05:43:23;2.20;;;2.10;;
5010;SDS011;2524;54.364;10.072;2023-01-23T05:45:49;1.93;;;1.93;;
5010;SDS011;2524;54.364;10.072;2023-01-23T05:48:15;2.10;;;2.10;;
5010;SDS011;2524;54.364;10.072;2023-01-23T05:50:40;1.90;;;1.90;;
5010;SDS011;2524;54.364;10.072;2023-01-23T05:53:06;2.53;;;2.20;;
5010;SDS011;2524;54.364;10.072;2023-01-23T05:55:31;1.80;;;1.70;;
5010;SDS011;2524;54.364;10.072;2023-01-23T05:57:57;2.60;;;2.50;;
5010;SDS011;2524;54.364;10.072;2023-01-23T06:00:23;3.13;;;2.60;;
5010;SDS011;2524;54.364;10.072;2023-01-23T06:02:48;2.57;;;2.50;;
5010;SDS011;2524;54.364;10.072;2023-01-23T06:05:14;2.10;;;2.10;;
5010;SDS011;2524;54.364;10.072;2023-01-23T06:07:40;2.90;;;2.63;;
5010;SDS011;2524;54.364;10.072;2023-01-23T06:10:05;3.40;;;3.10;;
5010;SDS011;2524;54.364;10.072;2023-01-23T06:12:32;2.50;;;2.40;;
5010;SDS011;2524;54.364;10.072;2023-01-23T06:14:57;2.70;;;2.50;;
5010;SDS011;2524;54.364;10.072;2023-01-23T06:17:23;2.20;;;2.10;;
5010;SDS011;2524;54.364;10.072;2023-01-23T06:19:48;2.67;;;2.57;;
5010;SDS011;2524;54.364;10.072;2023-01-23T06:22:14;3.33;;;3.13;;
5010;SDS011;2524;54.364;10.072;2023-01-23T06:24:40;3.03;;;2.80;;
5010;SDS011;2524;54.364;10.072;2023-01-23T06:27:05;3.13;;;2.60;;
5010;SDS011;2524;54.364;10.072;2023-01-23T06:29:35;3.00;;;2.90;;
5010;SDS011;2524;54.364;10.072;2023-01-23T06:32:00;3.30;;;3.10;;
5010;SDS011;2524;54.364;10.072;2023-01-23T06:34:26;2.90;;;2.73;;
5010;SDS011;2524;54.364;10.072;2023-01-23T06:36:52;3.27;;;2.97;;
5010;SDS011;2524;54.364;10.072;2023-01-23T06:39:18;2.93;;;2.73;;
5010;SDS011;2524;54.364;10.072;2023-01-23T06:41:43;2.40;;;2.30;;
5010;SDS011;2524;54.364;10.072;2023-01-23T06:44:09;2.87;;;2.77;;
5010;SDS011;2524;54.364;10.072;2023-01-23T06:46:35;3.17;;;3.07;;
5010;SDS011;2524;54.364;10.072;2023-01-23T06:49:01;3.53;;;3.37;;
5010;SDS011;2524;54.364;10.072;2023-01-23T06:51:26;3.10;;;3.00;;
5010;SDS011;2524;54.364;10.072;2023-01-23T06:53:52;2.47;;;2.37;;
5010;SDS011;2524;54.364;10.072;2023-01-23T06:56:18;2.50;;;2.37;;
5010;SDS011;2524;54.364;10.072;2023-01-23T06:58:44;3.50;;;3.40;;
5010;SDS011;2524;54.364;10.072;2023-01-23T07:01:14;3.10;;;3.00;;
5010;SDS011;2524;54.364;10.072;2023-01-23T07:03:42;3.10;;;3.00;;
5010;SDS011;2524;54.364;10.072;2023-01-23T07:06:13;2.97;;;2.87;;
5010;SDS011;2524;54.364;10.072;2023-01-23T07:08:40;2.00;;;1.90;;
5010;SDS011;2524;54.364;10.072;2023-01-23T07:11:07;1.90;;;1.80;;
5010;SDS011;2524;54.364;10.072;2023-01-23T07:13:33;1.80;;;1.80;;
5010;SDS011;2524;54.364;10.072;2023-01-23T07:15:59;1.77;;;1.77;;
5010;SDS011;2524;54.364;10.072;2023-01-23T07:18:25;1.90;;;1.90;;
5010;SDS011;2524;54.364;10.072;2023-01-23T07:20:52;2.10;;;2.10;;
5010;SDS011;2524;54.364;10.072;2023-01-23T07:23:19;2.10;;;2.00;;
5010;SDS011;2524;54.364;10.072;2023-01-23T07:25:45;2.10;;;2.10;;
5010;SDS011;2524;54.364;10.072;2023-01-23T07:28:11;2.13;;;2.03;;
5010;SDS011;2524;54.364;10.072;2023-01-23T07:30:37;1.70;;;1.70;;
5010;SDS011;2524;54.364;10.072;2023-01-23T07:33:03;1.70;;;1.70;;
5010;SDS011;2524;54.364;10.072;2023-01-23T07:35:28;2.13;;;2.13;;
5010;SDS011;2524;54.364;10.072;2023-01-23T07:37:54;1.97;;;1.97;;
5010;SDS011;2524;54.364;10.072;2023-01-23T07:40:20;1.57;;;1.57;;
5010;SDS011;2524;54.364;10.072;2023-01-23T07:42:46;2.03;;;1.93;;
5010;SDS011;2524;54.364;10.072;2023-01-23T07:45:11;1.87;;;1.83;;
5010;SDS011;2524;54.364;10.072;2023-01-23T07:47:38;2.53;;;2.43;;
5010;SDS011;2524;54.364;10.072;2023-01-23T07:50:04;1.90;;;1.90;;
5010;SDS011;2524;54.364;10.072;2023-01-23T07:52:31;1.83;;;1.80;;
5010;SDS011;2524;54.364;10.072;2023-01-23T07:54:57;1.87;;;1.87;;
5010;SDS011;2524;54.364;10.072;2023-01-23T07:57:22;2.20;;;2.20;;
5010;SDS011;2524;54.364;10.072;2023-01-23T07:59:48;3.17;;;3.07;;
5010;SDS011;2524;54.364;10.072;2023-01-23T08:02:14;2.10;;;2.10;;
5010;SDS011;2524;54.364;10.072;2023-01-23T08:04:39;1.97;;;1.87;;
5010;SDS011;2524;54.364;10.072;2023-01-23T08:07:05;2.90;;;2.80;;
5010;SDS011;2524;54.364;10.072;2023-01-23T08:09:30;1.87;;;1.87;;
5010;SDS011;2524;54.364;10.072;2023-01-23T08:11:56;3.23;;;3.13;;
5010;SDS011;2524;54.364;10.072;2023-01-23T08:14:22;2.57;;;2.47;;
5010;SDS011;2524;54.364;10.072;2023-01-23T08:16:51;2.77;;;2.67;;
5010;SDS011;2524;54.364;10.072;2023-01-23T08:19:17;3.10;;;3.00;;
5010;SDS011;2524;54.364;10.072;2023-01-23T08:21:43;2.80;;;2.70;;
5010;SDS011;2524;54.364;10.072;2023-01-23T08:24:10;2.10;;;2.10;;
5010;SDS011;2524;54.364;10.072;2023-01-23T08:26:37;3.37;;;3.17;;
5010;SDS011;2524;54.364;10.072;2023-01-23T08:29:03;3.30;;;3.20;;
5010;SDS011;2524;54.364;10.072;2023-01-23T08:31:29;2.77;;;2.67;;
5010;SDS011;2524;54.364;10.072;2023-01-23T08:33:54;3.57;;;3.37;;
5010;SDS011;2524;54.364;10.072;2023-01-23T08:36:21;2.90;;;2.80;;
5010;SDS011;2524;54.364;10.072;2023-01-23T08:38:46;2.40;;;2.40;;
5010;SDS011;2524;54.364;10.072;2023-01-23T08:41:12;2.20;;;2.20;;
5010;SDS011;2524;54.364;10.072;2023-01-23T08:43:38;2.00;;;2.00;;
5010;SDS011;2524;54.364;10.072;2023-01-23T08:46:05;2.83;;;2.73;;
5010;SDS011;2524;54.364;10.072;2023-01-23T08:48:32;1.97;;;1.97;;
5010;SDS011;2524;54.364;10.072;2023-01-23T08:51:00;2.70;;;2.60;;
5010;SDS011;2524;54.364;10.072;2023-01-23T08:53:28;2.77;;;2.67;;
5010;SDS011;2524;54.364;10.072;2023-01-23T08:56:01;2.97;;;2.87;;
5010;SDS011;2524;54.364;10.072;2023-01-23T08:58:28;2.83;;;2.73;;
5010;SDS011;2524;54.364;10.072;2023-01-23T09:00:54;2.10;;;2.10;;
5010;SDS011;2524;54.364;10.072;2023-01-23T09:03:20;2.90;;;2.80;;
5010;SDS011;2524;54.364;10.072;2023-01-23T09:05:45;2.90;;;2.80;;
5010;SDS011;2524;54.364;10.072;2023-01-23T09:08:11;2.23;;;2.23;;
5010;SDS011;2524;54.364;10.072;2023-01-23T09:10:37;2.90;;;2.80;;
5010;SDS011;2524;54.364;10.072;2023-01-23T09:13:03;1.90;;;1.90;;
5010;SDS011;2524;54.364;10.072;2023-01-23T09:15:28;2.80;;;2.73;;
5010;SDS011;2524;54.364;10.072;2023-01-23T09:17:54;3.20;;;3.10;;
5010;SDS011;2524;54.364;10.072;2023-01-23T09:20:19;3.13;;;3.03;;
5010;SDS011;2524;54.364;10.072;2023-01-23T09:22:45;3.03;;;2.93;;
5010;SDS011;2524;54.364;10.072;2023-01-23T09:25:11;2.93;;;2.83;;
5010;SDS011;2524;54.364;10.072;2023-01-23T09:27:38;3.60;;;3.40;;
5010;SDS011;2524;54.364;10.072;2023-01-23T09:30:04;4.30;;;4.00;;
5010;SDS011;2524;54.364;10.072;2023-01-23T09:32:30;4.33;;;4.00;;
5010;SDS011;2524;54.364;10.072;2023-01-23T09:34:56;4.23;;;4.03;;
5010;SDS011;2524;54.364;10.072;2023-01-23T09:37:21;3.47;;;3.30;;
5010;SDS011;2524;54.364;10.072;2023-01-23T09:39:47;2.80;;;2.70;;
5010;SDS011;2524;54.364;10.072;2023-01-23T09:42:22;2.30;;;2.30;;
5010;SDS011;2524;54.364;10.072;2023-01-23T09:44:56;2.87;;;2.77;;
5010;SDS011;2524;54.364;10.072;2023-01-23T09:47:43;1.97;;;1.97;;
5010;SDS011;2524;54.364;10.072;2023-01-23T09:50:16;2.80;;;2.63;;
5010;SDS011;2524;54.364;10.072;2023-01-23T09:52:49;3.60;;;3.33;;
5010;SDS011;2524;54.364;10.072;2023-01-23T09:55:40;2.63;;;2.53;;
5010;SDS011;2524;54.364;10.072;2023-01-23T09:58:29;2.90;;;2.70;;
5010;SDS011;2524;54.364;10.072;2023-01-23T10:01:12;2.23;;;2.13;;
5010;SDS011;2524;54.364;10.072;2023-01-23T10:03:38;2.93;;;2.83;;
5010;SDS011;2524;54.364;10.072;2023-01-23T10:06:07;1.97;;;1.97;;
5010;SDS011;2524;54.364;10.072;2023-01-23T10:11:58;2.00;;;2.00;;
5010;SDS011;2524;54.364;10.072;2023-01-23T10:25:48;2.67;;;2.57;;
5010;SDS011;2524;54.364;10.072;2023-01-23T10:30:40;4.10;;;3.90;;
5010;SDS011;2524;54.364;10.072;2023-01-23T10:38:16;5.20;;;4.80;;
5010;SDS011;2524;54.364;10.072;2023-01-23T10:40:50;4.17;;;3.87;;
5010;SDS011;2524;54.364;10.072;2023-01-23T10:43:34;4.80;;;4.50;;
5010;SDS011;2524;54.364;10.072;2023-01-23T10:46:00;4.60;;;4.30;;
5010;SDS011;2524;54.364;10.072;2023-01-23T10:51:10;5.03;;;4.70;;
5010;SDS011;2524;54.364;10.072;2023-01-23T10:56:30;3.30;;;3.20;;
5010;SDS011;2524;54.364;10.072;2023-01-23T10:58:57;5.33;;;4.83;;
5010;SDS011;2524;54.364;10.072;2023-01-23T11:01:26;5.80;;;5.40;;
5010;SDS011;2524;54.364;10.072;2023-01-23T11:03:54;7.57;;;6.87;;
5010;SDS011;2524;54.364;10.072;2023-01-23T11:06:20;7.57;;;6.77;;
5010;SDS011;2524;54.364;10.072;2023-01-23T11:08:59;6.70;;;6.20;;
5010;SDS011;2524;54.364;10.072;2023-01-23T11:11:26;6.83;;;5.90;;
5010;SDS011;2524;54.364;10.072;2023-01-23T11:14:04;6.67;;;6.17;;
5010;SDS011;2524;54.364;10.072;2023-01-23T11:16:41;8.60;;;7.60;;
5010;SDS011;2524;54.364;10.072;2023-01-23T11:21:34;5.13;;;4.83;;
5010;SDS011;2524;54.364;10.072;2023-01-23T11:26:57;4.90;;;4.60;;
5010;SDS011;2524;54.364;10.072;2023-01-23T11:29:25;4.80;;;4.50;;
5010;SDS011;2524;54.364;10.072;2023-01-23T11:31:54;5.07;;;4.77;;
5010;SDS011;2524;54.364;10.072;2023-01-23T11:34:26;6.53;;;5.97;;
5010;SDS011;2524;54.364;10.072;2023-01-23T11:37:06;5.27;;;4.97;;
5010;SDS011;2524;54.364;10.072;2023-01-23T11:42:22;5.20;;;4.90;;
5010;SDS011;2524;54.364;10.072;2023-01-23T11:44:50;5.60;;;5.20;;
5010;SDS011;2524;54.364;10.072;2023-01-23T11:47:32;4.80;;;4.60;;
5010;SDS011;2524;54.364;10.072;2023-01-23T11:50:33;4.70;;;4.40;;
5010;SDS011;2524;54.364;10.072;2023-01-23T11:59:08;6.00;;;5.53;;
5010;SDS011;2524;54.364;10.072;2023-01-23T12:01:53;7.53;;;6.83;;
5010;SDS011;2524;54.364;10.072;2023-01-23T12:07:59;5.40;;;4.90;;
5010;SDS011;2524;54.364;10.072;2023-01-23T12:24:51;7.53;;;6.90;;
5010;SDS011;2524;54.364;10.072;2023-01-23T12:32:36;7.17;;;6.53;;
5010;SDS011;2524;54.364;10.072;2023-01-23T12:35:21;6.57;;;6.07;;
5010;SDS011;2524;54.364;10.072;2023-01-23T12:38:22;5.00;;;4.70;;
5010;SDS011;2524;54.364;10.072;2023-01-23T12:43:41;4.80;;;4.23;;
5010;SDS011;2524;54.364;10.072;2023-01-23T12:49:17;8.43;;;7.63;;
5010;SDS011;2524;54.364;10.072;2023-01-23T12:52:38;6.87;;;6.37;;
5010;SDS011;2524;54.364;10.072;2023-01-23T12:55:24;6.13;;;5.63;;
5010;SDS011;2524;54.364;10.072;2023-01-23T12:57:57;7.00;;;6.50;;
5010;SDS011;2524;54.364;10.072;2023-01-23T13:00:28;6.67;;;6.17;;
5010;SDS011;2524;54.364;10.072;2023-01-23T13:08:43;6.67;;;6.07;;
5010;SDS011;2524;54.364;10.072;2023-01-23T13:16:45;7.13;;;6.50;;
5010;SDS011;2524;54.364;10.072;2023-01-23T13:19:38;6.90;;;6.30;;
5010;SDS011;2524;54.364;10.072;2023-01-23T13:22:43;5.30;;;4.87;;
5010;SDS011;2524;54.364;10.072;2023-01-23T13:31:03;5.70;;;5.30;;
5010;SDS011;2524;54.364;10.072;2023-01-23T13:35:57;5.53;;;5.13;;
5010;SDS011;2524;54.364;10.072;2023-01-23T13:38:36;4.43;;;4.07;;
5010;SDS011;2524;54.364;10.072;2023-01-23T13:52:16;4.23;;;3.93;;
5010;SDS011;2524;54.364;10.072;2023-01-23T13:55:21;4.33;;;4.03;;
5010;SDS011;2524;54.364;10.072;2023-01-23T13:58:18;4.20;;;3.90;;
5010;SDS011;2524;54.364;10.072;2023-01-23T14:00:54;5.77;;;5.27;;
5010;SDS011;2524;54.364;10.072;2023-01-23T14:04:04;6.87;;;6.17;;
5010;SDS011;2524;54.364;10.072;2023-01-23T14:06:55;13.13;;;7.00;;
5010;SDS011;2524;54.364;10.072;2023-01-23T14:09:22;5.77;;;5.23;;
5010;SDS011;2524;54.364;10.072;2023-01-23T14:11:59;12.83;;;7.73;;
5010;SDS011;2524;54.364;10.072;2023-01-23T14:14:27;16.70;;;8.87;;
5010;SDS011;2524;54.364;10.072;2023-01-23T14:17:16;10.33;;;7.87;;
5010;SDS011;2524;54.364;10.072;2023-01-23T14:20:04;9.20;;;6.37;;
5010;SDS011;2524;54.364;10.072;2023-01-23T14:22:37;10.70;;;7.30;;
5010;SDS011;2524;54.364;10.072;2023-01-23T14:25:04;15.50;;;8.07;;
5010;SDS011;2524;54.364;10.072;2023-01-23T14:27:40;10.10;;;6.27;;
5010;SDS011;2524;54.364;10.072;2023-01-23T14:30:13;32.00;;;14.13;;
5010;SDS011;2524;54.364;10.072;2023-01-23T14:32:40;17.70;;;10.10;;
5010;SDS011;2524;54.364;10.072;2023-01-23T14:37:58;27.13;;;12.17;;
5010;SDS011;2524;54.364;10.072;2023-01-23T14:40:26;12.60;;;8.60;;
5010;SDS011;2524;54.364;10.072;2023-01-23T14:42:55;17.60;;;8.57;;
5010;SDS011;2524;54.364;10.072;2023-01-23T14:45:27;11.83;;;7.90;;
5010;SDS011;2524;54.364;10.072;2023-01-23T14:47:55;21.57;;;10.73;;
5010;SDS011;2524;54.364;10.072;2023-01-23T14:50:22;19.87;;;10.50;;
5010;SDS011;2524;54.364;10.072;2023-01-23T14:53:00;18.60;;;9.67;;
5010;SDS011;2524;54.364;10.072;2023-01-23T14:55:31;24.47;;;12.57;;
5010;SDS011;2524;54.364;10.072;2023-01-23T14:58:01;16.80;;;10.10;;
5010;SDS011;2524;54.364;10.072;2023-01-23T15:00:27;15.37;;;8.40;;
5010;SDS011;2524;54.364;10.072;2023-01-23T15:02:54;12.93;;;7.20;;
5010;SDS011;2524;54.364;10.072;2023-01-23T15:05:21;12.40;;;7.90;;
5010;SDS011;2524;54.364;10.072;2023-01-23T15:10:26;18.60;;;10.40;;
5010;SDS011;2524;54.364;10.072;2023-01-23T15:15:29;14.10;;;9.10;;
5010;SDS011;2524;54.364;10.072;2023-01-23T15:17:56;8.80;;;6.40;;
5010;SDS011;2524;54.364;10.072;2023-01-23T15:20:26;7.67;;;6.93;;
5010;SDS011;2524;54.364;10.072;2023-01-23T15:22:52;8.27;;;6.60;;
5010;SDS011;2524;54.364;10.072;2023-01-23T15:25:25;11.37;;;8.93;;
5010;SDS011;2524;54.364;10.072;2023-01-23T15:27:51;10.47;;;7.73;;
5010;SDS011;2524;54.364;10.072;2023-01-23T15:32:58;8.07;;;5.40;;
5010;SDS011;2524;54.364;10.072;2023-01-23T15:35:30;4.90;;;4.43;;
5010;SDS011;2524;54.364;10.072;2023-01-23T15:37:58;4.43;;;4.03;;
5010;SDS011;2524;54.364;10.072;2023-01-23T15:40:28;3.97;;;3.63;;
5010;SDS011;2524;54.364;10.072;2023-01-23T15:42:59;4.97;;;4.50;;
5010;SDS011;2524;54.364;10.072;2023-01-23T15:45:27;4.33;;;4.03;;
5010;SDS011;2524;54.364;10.072;2023-01-23T15:47:53;4.27;;;3.97;;
5010;SDS011;2524;54.364;10.072;2023-01-23T15:50:19;8.27;;;6.30;;
5010;SDS011;2524;54.364;10.072;2023-01-23T15:52:46;6.73;;;6.00;;
5010;SDS011;2524;54.364;10.072;2023-01-23T15:55:17;6.33;;;5.00;;
5010;SDS011;2524;54.364;10.072;2023-01-23T15:57:53;5.53;;;5.03;;
5010;SDS011;2524;54.364;10.072;2023-01-23T16:00:26;5.00;;;4.10;;
5010;SDS011;2524;54.364;10.072;2023-01-23T16:02:53;4.87;;;4.50;;
5010;SDS011;2524;54.364;10.072;2023-01-23T16:05:20;5.50;;;5.00;;
5010;SDS011;2524;54.364;10.072;2023-01-23T16:07:47;5.30;;;4.80;;
5010;SDS011;2524;54.364;10.072;2023-01-23T16:10:17;5.90;;;5.30;;
5010;SDS011;2524;54.364;10.072;2023-01-23T16:12:43;5.63;;;5.10;;
5010;SDS011;2524;54.364;10.072;2023-01-23T16:15:34;6.23;;;5.63;;
5010;SDS011;2524;54.364;10.072;2023-01-23T16:17:59;6.23;;;5.03;;
5010;SDS011;2524;54.364;10.072;2023-01-23T16:20:27;5.30;;;4.80;;
5010;SDS011;2524;54.364;10.072;2023-01-23T16:22:56;4.47;;;4.17;;
5010;SDS011;2524;54.364;10.072;2023-01-23T16:25:27;4.97;;;4.57;;
5010;SDS011;2524;54.364;10.072;2023-01-23T16:27:57;11.37;;;7.93;;
5010;SDS011;2524;54.364;10.072;2023-01-23T16:30:23;12.30;;;6.90;;
5010;SDS011;2524;54.364;10.072;2023-01-23T16:32:50;6.10;;;5.40;;
5010;SDS011;2524;54.364;10.072;2023-01-23T16:35:17;5.93;;;5.40;;
5010;SDS011;2524;54.364;10.072;2023-01-23T16:37:47;4.83;;;4.43;;
5010;SDS011;2524;54.364;10.072;2023-01-23T16:40:19;4.73;;;4.33;;
5010;SDS011;2524;54.364;10.072;2023-01-23T16:42:47;4.37;;;4.00;;
5010;SDS011;2524;54.364;10.072;2023-01-23T16:45:16;5.80;;;5.20;;
5010;SDS011;2524;54.364;10.072;2023-01-23T16:47:44;10.67;;;6.60;;
5010;SDS011;2524;54.364;10.072;2023-01-23T16:50:11;5.90;;;5.00;;
5010;SDS011;2524;54.364;10.072;2023-01-23T16:52:37;10.40;;;7.90;;
5010;SDS011;2524;54.364;10.072;2023-01-23T16:55:05;8.60;;;5.93;;
5010;SDS011;2524;54.364;10.072;2023-01-23T16:57:43;5.53;;;5.03;;
5010;SDS011;2524;54.364;10.072;2023-01-23T17:00:13;5.63;;;5.00;;
5010;SDS011;2524;54.364;10.072;2023-01-23T17:02:43;4.77;;;4.40;;
5010;SDS011;2524;54.364;10.072;2023-01-23T17:05:14;4.97;;;4.57;;
5010;SDS011;2524;54.364;10.072;2023-01-23T17:07:43;4.60;;;3.97;;
5010;SDS011;2524;54.364;10.072;2023-01-23T17:10:14;5.17;;;4.40;;
5010;SDS011;2524;54.364;10.072;2023-01-23T17:12:51;4.37;;;3.87;;
5010;SDS011;2524;54.364;10.072;2023-01-23T17:15:21;8.70;;;6.67;;